Time;durP1;ratioP1;P1;durP2;ratioP2;P2;SDS_P1;SDS_P2;PMS_P1;PMS_P2;Temp;Humidity;BMP_temperature;BMP_pressure;BME280_temperature;BME280_humidity;BME280_pressure;Samples;Min_cycle;Max_cycle;Signal;HPM_P1;HPM_P2
2022/10/06 00:00:47;;;;;;;;;;;13.60;99.90;;;;;;5088340;28;19912;-77
2022/10/06 00:03:13;;;;;;;;;;;13.60;99.90;;;;;;5074116;28;19928;-75
2022/10/06 00:05:39;;;;;;;;;;;13.50;99.90;;;;;;5083095;28;19930;-77
2022/10/06 00:08:05;;;;;;;;;;;13.50;99.90;;;;;;5092981;28;19916;-75
2022/10/06 00:10:31;;;;;;;;;;;13.60;99.90;;;;;;5094108;28;19912;-75
2022/10/06 00:12:56;;;;;;;;;;;13.60;99.90;;;;;;5093951;28;19912;-75
2022/10/06 00:15:26;;;;;;;;;;;13.50;99.90;;;;;;5073466;28;19931;-76
2022/10/06 00:17:52;;;;;;;;;;;13.60;99.90;;;;;;5094522;28;19912;-74
2022/10/06 00:20:18;;;;;;;;;;;13.60;99.90;;;;;;5092528;28;19916;-75
2022/10/06 00:22:45;;;;;;;;;;;13.60;99.90;;;;;;5094402;28;20221;-75
2022/10/06 00:25:12;;;;;;;;;;;13.50;99.90;;;;;;5093096;28;20310;-75
2022/10/06 00:27:39;;;;;;;;;;;13.50;99.90;;;;;;5094710;28;19923;-76
2022/10/06 00:30:07;;;;;;;;;;;13.50;99.90;;;;;;5084183;28;19920;-77
2022/10/06 00:32:32;;;;;;;;;;;13.50;99.90;;;;;;5076535;28;19920;-76
2022/10/06 00:34:58;;;;;;;;;;;13.50;99.90;;;;;;5094251;28;19912;-74
2022/10/06 00:37:27;;;;;;;;;;;13.40;99.90;;;;;;5085828;28;19924;-74
2022/10/06 00:39:53;;;;;;;;;;;13.40;99.90;;;;;;5095613;28;19965;-76
2022/10/06 00:42:23;;;;;;;;;;;13.40;99.90;;;;;;5094056;28;19931;-76
2022/10/06 00:45:01;;;;;;;;;;;13.40;99.90;;;;;;5094807;28;19999;-75
2022/10/06 00:47:29;;;;;;;;;;;13.40;99.90;;;;;;5088186;28;20364;-76
2022/10/06 00:49:55;;;;;;;;;;;13.30;99.90;;;;;;5073635;28;19965;-76
2022/10/06 00:52:23;;;;;;;;;;;13.30;99.90;;;;;;5092519;28;20241;-75
2022/10/06 00:54:48;;;;;;;;;;;13.30;99.90;;;;;;5083570;28;19923;-74
2022/10/06 00:57:14;;;;;;;;;;;13.20;99.90;;;;;;5093915;28;19912;-74
2022/10/06 00:59:39;;;;;;;;;;;13.30;99.90;;;;;;5092154;28;20239;-75
2022/10/06 01:02:09;;;;;;;;;;;13.30;99.90;;;;;;5093429;28;20302;-75
2022/10/06 01:04:36;;;;;;;;;;;13.30;99.90;;;;;;5072775;28;19920;-75
2022/10/06 01:07:02;;;;;;;;;;;13.30;99.90;;;;;;5091677;28;19912;-74
2022/10/06 01:09:28;;;;;;;;;;;13.30;99.90;;;;;;5093090;28;19976;-75
2022/10/06 01:11:56;;;;;;;;;;;13.30;99.90;;;;;;5093456;28;19952;-75
2022/10/06 01:14:23;;;;;;;;;;;13.30;99.90;;;;;;5091113;28;19913;-74
2022/10/06 01:16:58;;;;;;;;;;;13.20;99.90;;;;;;5076020;28;20310;-75
2022/10/06 01:19:46;;;;;;;;;;;13.20;99.90;;;;;;5096592;28;19932;-75
2022/10/06 01:22:12;;;;;;;;;;;13.10;99.90;;;;;;5089971;28;20045;-74
2022/10/06 01:24:38;;;;;;;;;;;13.10;99.90;;;;;;5080367;28;19927;-74
2022/10/06 01:27:05;;;;;;;;;;;13.10;99.90;;;;;;5097586;28;19912;-75
2022/10/06 01:29:31;;;;;;;;;;;13.10;99.90;;;;;;5097381;28;19916;-75
2022/10/06 01:31:57;;;;;;;;;;;13.00;99.90;;;;;;5097627;28;20393;-74
2022/10/06 01:34:22;;;;;;;;;;;13.00;99.90;;;;;;5097227;28;20010;-75
2022/10/06 01:36:48;;;;;;;;;;;12.90;99.90;;;;;;5098247;28;19916;-75
2022/10/06 01:39:13;;;;;;;;;;;12.90;99.90;;;;;;5098725;28;19923;-75
2022/10/06 01:41:39;;;;;;;;;;;12.80;99.90;;;;;;5095939;28;19912;-75
2022/10/06 01:44:04;;;;;;;;;;;12.80;99.90;;;;;;5096323;28;19923;-74
2022/10/06 01:46:30;;;;;;;;;;;12.80;99.90;;;;;;5091513;28;19921;-75
2022/10/06 01:48:55;;;;;;;;;;;12.80;99.90;;;;;;5074848;28;20497;-74
2022/10/06 01:51:21;;;;;;;;;;;12.70;99.90;;;;;;5073832;28;20003;-73
2022/10/06 01:53:47;;;;;;;;;;;12.70;99.90;;;;;;5073533;28;19912;-74
2022/10/06 01:56:12;;;;;;;;;;;12.70;99.90;;;;;;5068824;28;19920;-74
2022/10/06 01:58:38;;;;;;;;;;;12.70;99.90;;;;;;5075897;28;20219;-75
2022/10/06 02:01:05;;;;;;;;;;;12.70;99.90;;;;;;5082649;28;20260;-75
2022/10/06 02:03:35;;;;;;;;;;;12.60;99.90;;;;;;5074922;28;19921;-75
2022/10/06 02:06:01;;;;;;;;;;;12.50;99.90;;;;;;5075318;28;19946;-74
2022/10/06 02:08:26;;;;;;;;;;;12.50;99.90;;;;;;5074606;28;21127;-75
2022/10/06 02:10:52;;;;;;;;;;;12.40;99.90;;;;;;5077162;28;20405;-75
2022/10/06 02:13:17;;;;;;;;;;;12.40;99.90;;;;;;5073798;28;19920;-75
2022/10/06 02:15:43;;;;;;;;;;;12.30;99.90;;;;;;5076176;28;19917;-75
2022/10/06 02:18:09;;;;;;;;;;;12.30;99.90;;;;;;5075635;28;19916;-74
2022/10/06 02:20:35;;;;;;;;;;;12.30;99.90;;;;;;5088459;28;20262;-74
2022/10/06 02:23:00;;;;;;;;;;;12.30;99.90;;;;;;5068180;28;19913;-75
2022/10/06 02:25:26;;;;;;;;;;;12.20;99.90;;;;;;5076499;28;20313;-75
2022/10/06 02:27:52;;;;;;;;;;;12.20;99.90;;;;;;5076266;28;20212;-75
2022/10/06 02:30:18;;;;;;;;;;;12.20;99.90;;;;;;5073452;28;20236;-74
2022/10/06 02:32:44;;;;;;;;;;;12.20;99.90;;;;;;5076297;28;19991;-75
2022/10/06 02:35:13;;;;;;;;;;;12.20;99.90;;;;;;5076198;28;19912;-75
2022/10/06 02:37:40;;;;;;;;;;;12.10;99.90;;;;;;5072977;28;20250;-74
2022/10/06 02:40:06;;;;;;;;;;;12.10;99.90;;;;;;5065994;28;19913;-75
2022/10/06 02:42:34;;;;;;;;;;;11.90;99.90;;;;;;5073089;28;19916;-75
2022/10/06 02:44:59;;;;;;;;;;;11.90;99.90;;;;;;5074829;28;20223;-74
2022/10/06 02:47:25;;;;;;;;;;;11.80;99.90;;;;;;5081117;28;19920;-74
2022/10/06 02:49:50;;;;;;;;;;;11.80;99.90;;;;;;5096755;28;19912;-74
2022/10/06 02:52:16;;;;;;;;;;;11.80;99.90;;;;;;5096957;28;19916;-74
2022/10/06 02:54:41;;;;;;;;;;;11.70;99.90;;;;;;5095862;28;19951;-74
2022/10/06 02:57:07;;;;;;;;;;;11.70;99.90;;;;;;5095224;28;19924;-74
2022/10/06 02:59:33;;;;;;;;;;;11.60;99.90;;;;;;5092319;28;19920;-74
2022/10/06 03:01:58;;;;;;;;;;;11.50;99.90;;;;;;5093365;28;20263;-74
2022/10/06 03:04:24;;;;;;;;;;;11.50;99.90;;;;;;5095698;28;19920;-74
2022/10/06 03:06:49;;;;;;;;;;;11.40;99.90;;;;;;5077305;28;19916;-74
2022/10/06 03:09:16;;;;;;;;;;;11.40;99.90;;;;;;5095601;28;19912;-74
2022/10/06 03:11:42;;;;;;;;;;;11.40;99.90;;;;;;5095921;28;19920;-74
2022/10/06 03:14:08;;;;;;;;;;;11.40;99.90;;;;;;5078682;28;20012;-74
2022/10/06 03:16:40;;;;;;;;;;;11.40;99.90;;;;;;5091135;28;19958;-74
2022/10/06 03:19:06;;;;;;;;;;;11.30;99.90;;;;;;5075335;28;19916;-74
2022/10/06 03:21:33;;;;;;;;;;;11.30;99.90;;;;;;5095645;28;19923;-74
2022/10/06 03:23:59;;;;;;;;;;;11.30;99.90;;;;;;5094777;28;19968;-74
2022/10/06 03:26:26;;;;;;;;;;;11.20;99.90;;;;;;5095544;28;19999;-74
2022/10/06 03:28:52;;;;;;;;;;;11.20;99.90;;;;;;5077728;28;20318;-74
2022/10/06 03:31:18;;;;;;;;;;;11.20;99.90;;;;;;5093393;28;19916;-74
2022/10/06 03:33:43;;;;;;;;;;;11.20;99.90;;;;;;5092721;28;19915;-74
2022/10/06 03:36:10;;;;;;;;;;;11.20;99.90;;;;;;5096269;28;19918;-74
2022/10/06 03:38:36;;;;;;;;;;;11.20;99.90;;;;;;5077902;28;19930;-74
2022/10/06 03:41:06;;;;;;;;;;;11.10;99.90;;;;;;5070849;28;19912;-74
2022/10/06 03:43:32;;;;;;;;;;;11.10;99.90;;;;;;5077429;28;19923;-75
2022/10/06 03:45:59;;;;;;;;;;;11.10;99.90;;;;;;5094975;28;19920;-74
2022/10/06 03:48:26;;;;;;;;;;;11.10;99.90;;;;;;5094859;28;19961;-74
2022/10/06 03:50:56;;;;;;;;;;;11.10;99.90;;;;;;5091540;28;20304;-74
2022/10/06 03:53:26;;;;;;;;;;;11.10;99.90;;;;;;5093365;28;20200;-74
2022/10/06 03:55:58;;;;;;;;;;;11.10;99.90;;;;;;5090612;28;20010;-74
2022/10/06 03:58:24;;;;;;;;;;;11.10;99.90;;;;;;5081543;28;20219;-74
2022/10/06 04:00:56;;;;;;;;;;;11.00;99.90;;;;;;5094826;28;19912;-74
2022/10/06 04:03:22;;;;;;;;;;;11.00;99.90;;;;;;5090364;28;20315;-74
2022/10/06 04:05:55;;;;;;;;;;;11.00;99.90;;;;;;5069312;28;19916;-74
2022/10/06 04:08:21;;;;;;;;;;;11.00;99.90;;;;;;5108105;28;19909;-74
2022/10/06 04:10:46;;;;;;;;;;;10.90;99.90;;;;;;5094780;28;19995;-74
2022/10/06 04:13:14;;;;;;;;;;;10.90;99.90;;;;;;5096409;28;19994;-74
2022/10/06 04:15:39;;;;;;;;;;;10.90;99.90;;;;;;5108716;28;20374;-74
2022/10/06 04:18:05;;;;;;;;;;;10.90;99.90;;;;;;5101042;28;20002;-74
2022/10/06 04:20:31;;;;;;;;;;;10.80;99.90;;;;;;5092751;28;19935;-74
2022/10/06 04:22:57;;;;;;;;;;;10.90;99.90;;;;;;5105562;28;19912;-74
2022/10/06 04:25:22;;;;;;;;;;;10.80;99.90;;;;;;5104360;28;19958;-74
2022/10/06 04:27:48;;;;;;;;;;;10.90;99.90;;;;;;5094595;28;19916;-74
2022/10/06 04:30:14;;;;;;;;;;;10.80;99.90;;;;;;5086361;28;20324;-74
2022/10/06 04:32:39;;;;;;;;;;;10.80;99.90;;;;;;5105705;28;19918;-74
2022/10/06 04:35:05;;;;;;;;;;;10.80;99.90;;;;;;5113835;28;19907;-74
2022/10/06 04:37:31;;;;;;;;;;;10.80;99.90;;;;;;5095682;28;20291;-74
2022/10/06 04:39:56;;;;;;;;;;;10.80;99.90;;;;;;5109397;28;19915;-74
2022/10/06 04:42:22;;;;;;;;;;;10.80;99.90;;;;;;5102487;28;20404;-74
2022/10/06 04:44:47;;;;;;;;;;;10.80;99.90;;;;;;5100600;28;20265;-74
2022/10/06 04:47:13;;;;;;;;;;;10.80;99.90;;;;;;5091737;28;20342;-74
2022/10/06 04:49:39;;;;;;;;;;;10.80;99.90;;;;;;5082670;28;20219;-74
2022/10/06 04:52:04;;;;;;;;;;;10.80;99.90;;;;;;5094467;28;19912;-74
2022/10/06 04:54:30;;;;;;;;;;;10.80;99.90;;;;;;5093779;28;19908;-74
2022/10/06 04:56:56;;;;;;;;;;;10.90;99.90;;;;;;5095438;28;19908;-75
2022/10/06 05:00:21;;;;;;;;;;;10.90;99.90;;;;;;5094583;28;19915;-74
2022/10/06 05:02:07;;;;;;;;;;;10.80;99.90;;;;;;5091611;28;19924;-74
2022/10/06 05:04:33;;;;;;;;;;;10.80;99.90;;;;;;5064480;28;19933;-74
2022/10/06 05:06:58;;;;;;;;;;;10.80;99.90;;;;;;5070245;28;19927;-74
2022/10/06 05:09:24;;;;;;;;;;;10.70;99.90;;;;;;5095132;28;20252;-74
2022/10/06 05:11:49;;;;;;;;;;;10.80;99.90;;;;;;5094825;28;19915;-74
2022/10/06 05:14:15;;;;;;;;;;;10.70;99.90;;;;;;5094417;28;20223;-74
2022/10/06 05:16:41;;;;;;;;;;;10.80;99.90;;;;;;5096552;28;19921;-75
2022/10/06 05:19:07;;;;;;;;;;;10.80;99.90;;;;;;5108397;28;19911;-74
2022/10/06 05:21:33;;;;;;;;;;;10.80;99.90;;;;;;5091742;28;20105;-74
2022/10/06 05:23:59;;;;;;;;;;;10.80;99.90;;;;;;5106329;28;19922;-75
2022/10/06 05:26:26;;;;;;;;;;;10.80;99.90;;;;;;5111051;28;20014;-74
2022/10/06 05:28:52;;;;;;;;;;;10.70;99.90;;;;;;5108601;28;19912;-74
2022/10/06 05:31:22;;;;;;;;;;;10.70;99.90;;;;;;5107728;28;19923;-74
2022/10/06 05:33:48;;;;;;;;;;;10.70;99.90;;;;;;5107401;28;19916;-74
2022/10/06 05:36:15;;;;;;;;;;;10.70;99.90;;;;;;5107141;28;19912;-74
2022/10/06 05:38:41;;;;;;;;;;;10.60;99.90;;;;;;5109936;28;19939;-74
2022/10/06 05:41:09;;;;;;;;;;;10.60;99.90;;;;;;5106680;28;19955;-74
2022/10/06 05:43:35;;;;;;;;;;;10.50;99.90;;;;;;5093761;28;19920;-74
2022/10/06 05:46:01;;;;;;;;;;;10.50;99.90;;;;;;5108227;28;19945;-75
2022/10/06 05:48:27;;;;;;;;;;;10.50;99.90;;;;;;5110384;28;19943;-74
2022/10/06 05:51:01;;;;;;;;;;;10.50;99.90;;;;;;5088783;28;20138;-74
2022/10/06 05:53:28;;;;;;;;;;;10.50;99.90;;;;;;5104631;28;19919;-74
2022/10/06 05:56:08;;;;;;;;;;;10.50;99.90;;;;;;5105752;28;19917;-74
2022/10/06 05:58:34;;;;;;;;;;;10.50;99.90;;;;;;5107764;28;19916;-74
2022/10/06 06:01:07;;;;;;;;;;;10.50;99.90;;;;;;5104135;28;19940;-74
2022/10/06 06:03:32;;;;;;;;;;;10.50;99.90;;;;;;5062977;28;20375;-74
2022/10/06 06:05:58;;;;;;;;;;;10.50;99.90;;;;;;5105006;28;20014;-74
2022/10/06 06:08:23;;;;;;;;;;;10.50;99.90;;;;;;5109739;28;19915;-74
2022/10/06 06:10:49;;;;;;;;;;;10.60;99.90;;;;;;5114521;28;19907;-74
2022/10/06 06:13:18;;;;;;;;;;;10.50;99.90;;;;;;5109340;28;20295;-74
2022/10/06 06:15:59;;;;;;;;;;;10.50;99.90;;;;;;5109500;28;19951;-75
2022/10/06 06:18:25;;;;;;;;;;;10.50;99.90;;;;;;5108640;28;20234;-74
2022/10/06 06:20:56;;;;;;;;;;;10.60;99.90;;;;;;5109827;28;19947;-74
2022/10/06 06:23:22;;;;;;;;;;;10.50;99.90;;;;;;5107667;28;20199;-74
2022/10/06 06:25:59;;;;;;;;;;;10.50;99.90;;;;;;5089004;28;19916;-74
2022/10/06 06:28:24;;;;;;;;;;;10.50;99.90;;;;;;5113181;28;19908;-74
2022/10/06 06:30:57;;;;;;;;;;;10.60;99.90;;;;;;5110811;28;19907;-74
2022/10/06 06:33:23;;;;;;;;;;;10.60;99.90;;;;;;5091820;28;20036;-75
2022/10/06 06:35:48;;;;;;;;;;;10.60;99.90;;;;;;5087387;28;19920;-74
2022/10/06 06:38:14;;;;;;;;;;;10.60;99.90;;;;;;5105238;28;19912;-75
2022/10/06 06:40:40;;;;;;;;;;;10.60;99.90;;;;;;5111188;28;19953;-75
2022/10/06 06:43:05;;;;;;;;;;;10.60;99.90;;;;;;5108344;28;19916;-74
2022/10/06 06:45:31;;;;;;;;;;;10.60;99.90;;;;;;5109925;28;19912;-74
2022/10/06 06:47:57;;;;;;;;;;;10.70;99.90;;;;;;5077619;28;19981;-75
2022/10/06 06:50:22;;;;;;;;;;;10.80;99.90;;;;;;5105933;28;19931;-74
2022/10/06 06:52:48;;;;;;;;;;;10.90;99.90;;;;;;5092996;28;19912;-75
2022/10/06 06:55:14;;;;;;;;;;;11.00;99.90;;;;;;5106299;28;19997;-74
2022/10/06 06:57:41;;;;;;;;;;;11.20;99.90;;;;;;5107219;28;19908;-74
2022/10/06 07:00:07;;;;;;;;;;;11.80;99.90;;;;;;5109314;28;19918;-74
2022/10/06 07:02:32;;;;;;;;;;;12.50;99.90;;;;;;5101180;28;19916;-74
2022/10/06 07:04:58;;;;;;;;;;;13.20;99.90;;;;;;5108897;28;20333;-74
2022/10/06 07:07:24;;;;;;;;;;;13.80;99.90;;;;;;5107296;28;19919;-74
2022/10/06 07:09:49;;;;;;;;;;;14.40;99.90;;;;;;5106486;28;19908;-74
2022/10/06 07:12:15;;;;;;;;;;;15.10;99.90;;;;;;5106515;28;20011;-75
2022/10/06 07:25:05;;;;;;;;;;;15.60;99.90;;;;;;5090790;28;19915;-74
2022/10/06 07:25:39;;;;;;;;;;;17.50;99.90;;;;;;5090131;28;20384;-75
2022/10/06 07:28:05;;;;;;;;;;;17.80;99.90;;;;;;5096494;28;20022;-75
2022/10/06 07:30:31;;;;;;;;;;;18.20;99.90;;;;;;5091988;28;20295;-75
2022/10/06 07:32:56;;;;;;;;;;;18.70;99.90;;;;;;5107113;28;19918;-75
2022/10/06 07:35:23;;;;;;;;;;;18.90;99.90;;;;;;5112559;28;19923;-74
2022/10/06 07:37:49;;;;;;;;;;;19.10;99.90;;;;;;5111730;28;19957;-73
2022/10/06 07:40:15;;;;;;;;;;;19.10;99.90;;;;;;5109290;28;19912;-75
2022/10/06 07:42:47;;;;;;;;;;;19.10;99.90;;;;;;5107140;28;19914;-75
2022/10/06 07:45:37;;;;;;;;;;;18.70;99.90;;;;;;5106244;28;19919;-75
2022/10/06 07:48:03;;;;;;;;;;;18.30;99.90;;;;;;5089258;28;19942;-75
2022/10/06 07:50:29;;;;;;;;;;;17.60;99.90;;;;;;5078062;28;19912;-75
2022/10/06 07:52:54;;;;;;;;;;;17.00;99.90;;;;;;5106913;28;19923;-75
2022/10/06 07:55:20;;;;;;;;;;;16.70;99.90;;;;;;5090629;28;19909;-75
2022/10/06 07:57:46;;;;;;;;;;;16.60;99.90;;;;;;5109369;28;20006;-75
2022/10/06 08:00:14;;;;;;;;;;;16.70;99.90;;;;;;5112982;28;19937;-74
2022/10/06 08:02:43;;;;;;;;;;;16.60;99.90;;;;;;5093473;28;20235;-75
2022/10/06 08:05:08;;;;;;;;;;;16.60;99.90;;;;;;5105298;28;19924;-75
2022/10/06 08:07:34;;;;;;;;;;;16.40;99.90;;;;;;5098197;28;19987;-74
2022/10/06 08:10:00;;;;;;;;;;;16.40;99.90;;;;;;5057415;28;19916;-74
2022/10/06 08:12:36;;;;;;;;;;;16.20;99.90;;;;;;5091266;28;20303;-75
2022/10/06 08:15:06;;;;;;;;;;;16.10;99.90;;;;;;5077989;28;20029;-73
2022/10/06 08:17:32;;;;;;;;;;;15.90;99.90;;;;;;5088199;28;19923;-74
2022/10/06 08:19:58;;;;;;;;;;;15.80;99.90;;;;;;5097220;28;20224;-74
2022/10/06 08:22:28;;;;;;;;;;;15.80;99.90;;;;;;5097964;28;19918;-74
2022/10/06 08:24:57;;;;;;;;;;;15.80;99.90;;;;;;5095138;28;20007;-73
2022/10/06 08:27:24;;;;;;;;;;;15.80;99.90;;;;;;5094607;28;19916;-73
2022/10/06 08:29:49;;;;;;;;;;;15.80;99.90;;;;;;5101881;28;20226;-73
2022/10/06 08:32:17;;;;;;;;;;;15.90;99.90;;;;;;5099303;28;19916;-74
2022/10/06 08:34:42;;;;;;;;;;;16.10;99.90;;;;;;5098868;28;19912;-74
2022/10/06 08:37:08;;;;;;;;;;;16.10;99.90;;;;;;5112907;28;19912;-74
2022/10/06 08:39:34;;;;;;;;;;;16.30;99.90;;;;;;5097493;28;19975;-75
2022/10/06 08:41:59;;;;;;;;;;;16.80;99.90;;;;;;5108557;28;19951;-73
2022/10/06 08:44:46;;;;;;;;;;;17.00;99.90;;;;;;5115273;28;19994;-73
2022/10/06 08:47:22;;;;;;;;;;;17.10;99.90;;;;;;5096054;28;20372;-73
2022/10/06 08:49:49;;;;;;;;;;;17.30;99.90;;;;;;5095954;28;19912;-74
2022/10/06 08:52:25;;;;;;;;;;;17.50;99.90;;;;;;5077022;28;20372;-74
2022/10/06 08:55:03;;;;;;;;;;;17.80;99.90;;;;;;5100355;28;19952;-73
2022/10/06 08:57:29;;;;;;;;;;;17.90;99.90;;;;;;5072566;28;19963;-75
2022/10/06 08:59:56;;;;;;;;;;;18.00;99.90;;;;;;5106410;28;19943;-74
2022/10/06 09:02:37;;;;;;;;;;;18.00;99.90;;;;;;5105609;28;19927;-75
2022/10/06 09:05:04;;;;;;;;;;;18.10;99.90;;;;;;5094951;28;20211;-74
2022/10/06 09:07:37;;;;;;;;;;;18.10;99.90;;;;;;5106994;28;20299;-74
2022/10/06 09:10:21;;;;;;;;;;;18.10;99.90;;;;;;5085073;28;19915;-75
2022/10/06 09:12:50;;;;;;;;;;;17.80;99.90;;;;;;5077567;28;19999;-74
2022/10/06 09:15:36;;;;;;;;;;;17.80;99.90;;;;;;5085530;28;19915;-73
2022/10/06 09:18:09;;;;;;;;;;;17.50;99.90;;;;;;5074717;28;19958;-74
2022/10/06 09:20:42;;;;;;;;;;;17.40;99.90;;;;;;5091779;28;20039;-74
2022/10/06 09:23:13;;;;;;;;;;;17.40;99.90;;;;;;5073699;28;19915;-75
2022/10/06 09:25:39;;;;;;;;;;;17.10;99.90;;;;;;5093287;28;19908;-72
2022/10/06 09:28:09;;;;;;;;;;;16.70;99.90;;;;;;5097027;28;20287;-75
2022/10/06 09:30:36;;;;;;;;;;;16.50;99.90;;;;;;5099690;28;19953;-75
2022/10/06 09:33:03;;;;;;;;;;;16.30;99.90;;;;;;5078592;28;19912;-73
2022/10/06 09:35:30;;;;;;;;;;;16.10;99.90;;;;;;5095665;28;19908;-74
2022/10/06 09:37:57;;;;;;;;;;;15.80;99.90;;;;;;5096311;28;20217;-75
2022/10/06 09:40:34;;;;;;;;;;;15.60;99.90;;;;;;5101008;28;19934;-74
2022/10/06 09:43:01;;;;;;;;;;;16.00;99.90;;;;;;5099236;28;20261;-74
2022/10/06 09:45:27;;;;;;;;;;;16.80;99.90;;;;;;5103795;28;19943;-74
2022/10/06 09:47:53;;;;;;;;;;;17.70;99.90;;;;;;5088540;28;19928;-73
2022/10/06 09:50:23;;;;;;;;;;;18.50;99.90;;;;;;5102484;28;20315;-74
2022/10/06 09:52:59;;;;;;;;;;;18.70;99.90;;;;;;5099210;28;19908;-75
2022/10/06 09:55:27;;;;;;;;;;;18.30;99.90;;;;;;5099180;28;19962;-75
2022/10/06 09:57:57;;;;;;;;;;;18.00;99.90;;;;;;5100561;28;19911;-73
2022/10/06 10:00:37;;;;;;;;;;;17.80;99.90;;;;;;5096370;28;20007;-75
2022/10/06 10:03:04;;;;;;;;;;;17.60;99.90;;;;;;5100260;28;21896;-74
2022/10/06 10:05:35;;;;;;;;;;;17.20;99.90;;;;;;5105174;28;19916;-73
2022/10/06 10:08:08;;;;;;;;;;;16.80;99.90;;;;;;5105811;28;19935;-74
2022/10/06 10:10:35;;;;;;;;;;;16.70;99.90;;;;;;5106930;28;19916;-75
2022/10/06 10:13:01;;;;;;;;;;;16.90;99.90;;;;;;5094250;28;19966;-74
2022/10/06 10:15:30;;;;;;;;;;;17.10;99.90;;;;;;5092124;28;20318;-75
2022/10/06 10:18:03;;;;;;;;;;;17.30;99.90;;;;;;5098311;28;19919;-74
2022/10/06 10:20:34;;;;;;;;;;;17.40;99.90;;;;;;5059953;28;19920;-74
2022/10/06 10:23:01;;;;;;;;;;;17.50;99.90;;;;;;5085533;28;19912;-73
2022/10/06 10:25:33;;;;;;;;;;;17.50;99.90;;;;;;5091370;28;19916;-74
2022/10/06 10:28:17;;;;;;;;;;;17.50;99.90;;;;;;5078596;28;19919;-76
2022/10/06 10:30:48;;;;;;;;;;;17.60;99.90;;;;;;5097709;28;19918;-73
2022/10/06 10:33:17;;;;;;;;;;;17.60;99.90;;;;;;5097861;28;19957;-74
2022/10/06 10:35:45;;;;;;;;;;;17.60;99.90;;;;;;5097899;28;19965;-73
2022/10/06 10:38:14;;;;;;;;;;;17.60;99.90;;;;;;5100353;28;20007;-74
2022/10/06 10:40:46;;;;;;;;;;;17.60;99.90;;;;;;5098357;28;19937;-73
2022/10/06 10:43:22;;;;;;;;;;;17.50;99.90;;;;;;5101466;28;19912;-73
2022/10/06 10:46:10;;;;;;;;;;;17.50;99.90;;;;;;5101351;28;19999;-73
2022/10/06 10:48:44;;;;;;;;;;;17.50;99.90;;;;;;5090898;28;19920;-73
2022/10/06 10:51:13;;;;;;;;;;;17.40;99.90;;;;;;5072213;28;20310;-73
2022/10/06 10:53:53;;;;;;;;;;;17.30;99.90;;;;;;5097778;28;19912;-72
2022/10/06 10:56:21;;;;;;;;;;;17.10;99.90;;;;;;5097226;28;19991;-73
2022/10/06 10:58:51;;;;;;;;;;;16.90;99.90;;;;;;5098053;28;19912;-73
2022/10/06 11:01:34;;;;;;;;;;;16.80;99.90;;;;;;5103862;28;19955;-74
2022/10/06 11:04:01;;;;;;;;;;;16.90;99.90;;;;;;5105728;28;19920;-74
2022/10/06 11:06:45;;;;;;;;;;;17.00;99.90;;;;;;5109630;28;20274;-73
2022/10/06 11:09:14;;;;;;;;;;;17.10;99.90;;;;;;5091106;28;20264;-73
2022/10/06 11:11:46;;;;;;;;;;;17.30;99.90;;;;;;5089516;28;19912;-75
2022/10/06 11:14:31;;;;;;;;;;;17.40;99.90;;;;;;5109060;28;20217;-74
2022/10/06 11:17:05;;;;;;;;;;;17.40;99.90;;;;;;5109924;28;19912;-74
2022/10/06 11:19:38;;;;;;;;;;;17.50;99.90;;;;;;5083991;28;20211;-76
2022/10/06 11:22:13;;;;;;;;;;;17.60;99.90;;;;;;5089103;28;19920;-75
2022/10/06 11:24:44;;;;;;;;;;;17.70;99.90;;;;;;5072640;28;19971;-73
2022/10/06 11:27:13;;;;;;;;;;;17.90;99.90;;;;;;5094243;28;20191;-75
2022/10/06 11:29:45;;;;;;;;;;;17.90;99.90;;;;;;5072548;28;19927;-74
2022/10/06 11:32:37;;;;;;;;;;;18.00;99.90;;;;;;5082019;28;20341;-75
2022/10/06 11:35:15;;;;;;;;;;;18.10;99.90;;;;;;5056984;28;20052;-73
2022/10/06 11:37:56;;;;;;;;;;;18.10;99.90;;;;;;5087193;28;20192;-74
2022/10/06 11:40:22;;;;;;;;;;;18.10;99.90;;;;;;5096675;28;19912;-74
2022/10/06 11:43:11;;;;;;;;;;;18.20;99.90;;;;;;5101819;28;20053;-76
2022/10/06 11:45:45;;;;;;;;;;;18.30;99.90;;;;;;5078754;28;19920;-75
2022/10/06 11:48:27;;;;;;;;;;;18.50;99.90;;;;;;5107768;28;19915;-74
2022/10/06 11:50:56;;;;;;;;;;;18.60;99.90;;;;;;5107253;28;19938;-74
2022/10/06 11:53:25;;;;;;;;;;;18.80;99.90;;;;;;5106368;28;19953;-74
2022/10/06 11:56:09;;;;;;;;;;;18.90;99.90;;;;;;5069576;28;19923;-74
2022/10/06 11:58:53;;;;;;;;;;;19.00;99.90;;;;;;5105466;28;19918;-75
2022/10/06 12:01:34;;;;;;;;;;;18.90;99.90;;;;;;5102841;28;19950;-74
2022/10/06 12:04:09;;;;;;;;;;;18.90;99.90;;;;;;5107590;28;19919;-74
2022/10/06 12:06:41;;;;;;;;;;;18.90;99.90;;;;;;5109106;28;19931;-75
2022/10/06 12:09:31;;;;;;;;;;;18.80;99.90;;;;;;5084345;28;19926;-74
2022/10/06 12:12:01;;;;;;;;;;;18.90;99.90;;;;;;5104104;28;20041;-75
2022/10/06 12:14:49;;;;;;;;;;;18.90;99.80;;;;;;5104277;28;19916;-74
2022/10/06 12:17:24;;;;;;;;;;;19.00;99.90;;;;;;5073548;28;20366;-74
2022/10/06 12:20:15;;;;;;;;;;;19.10;99.90;;;;;;5101925;28;19919;-73
2022/10/06 12:22:47;;;;;;;;;;;19.10;99.90;;;;;;5072019;28;19912;-74
2022/10/06 12:25:26;;;;;;;;;;;19.20;99.90;;;;;;5093398;28;19985;-73
2022/10/06 12:27:55;;;;;;;;;;;19.20;99.90;;;;;;5076378;28;19919;-74
2022/10/06 12:30:29;;;;;;;;;;;19.20;99.90;;;;;;5084769;28;20001;-74
2022/10/06 12:32:56;;;;;;;;;;;19.30;99.90;;;;;;5089813;28;19999;-74
2022/10/06 12:35:30;;;;;;;;;;;19.30;99.90;;;;;;5096196;28;20416;-74
2022/10/06 12:37:59;;;;;;;;;;;19.40;99.90;;;;;;5094506;28;20299;-76
2022/10/06 12:40:37;;;;;;;;;;;19.40;99.90;;;;;;5075972;28;20003;-74
2022/10/06 12:43:29;;;;;;;;;;;19.30;99.90;;;;;;5100368;28;19911;-73
2022/10/06 12:45:59;;;;;;;;;;;19.00;99.90;;;;;;5088952;28;19916;-75
2022/10/06 12:48:44;;;;;;;;;;;18.90;99.90;;;;;;5109938;28;20366;-74
2022/10/06 12:51:10;;;;;;;;;;;18.90;99.90;;;;;;5092814;28;20013;-75
2022/10/06 12:53:40;;;;;;;;;;;18.90;99.90;;;;;;5079778;28;19948;-73
2022/10/06 12:56:13;;;;;;;;;;;18.80;99.90;;;;;;5094292;28;20007;-74
2022/10/06 12:58:39;;;;;;;;;;;18.80;99.90;;;;;;5094214;28;20002;-74
2022/10/06 13:01:09;;;;;;;;;;;18.90;99.90;;;;;;5092118;28;20280;-73
2022/10/06 13:03:35;;;;;;;;;;;19.00;99.90;;;;;;5106098;28;19923;-75
2022/10/06 13:06:02;;;;;;;;;;;19.00;99.90;;;;;;5097795;28;20007;-73
2022/10/06 13:08:29;;;;;;;;;;;19.10;99.90;;;;;;5087865;28;19916;-73
2022/10/06 13:11:14;;;;;;;;;;;19.10;99.90;;;;;;5081033;28;19916;-73
2022/10/06 13:13:53;;;;;;;;;;;19.20;99.90;;;;;;5094659;28;19916;-74
2022/10/06 13:16:20;;;;;;;;;;;19.20;99.90;;;;;;5100491;28;19908;-73
2022/10/06 13:18:47;;;;;;;;;;;19.30;99.90;;;;;;5092392;28;20728;-75
2022/10/06 13:21:14;;;;;;;;;;;19.10;99.90;;;;;;5100731;28;19916;-73
2022/10/06 13:23:40;;;;;;;;;;;19.10;99.90;;;;;;5102069;28;19916;-72
2022/10/06 13:26:14;;;;;;;;;;;19.10;99.90;;;;;;5097074;28;19912;-73
2022/10/06 13:28:40;;;;;;;;;;;18.80;99.90;;;;;;5061750;28;20276;-72
2022/10/06 13:31:27;;;;;;;;;;;18.60;99.90;;;;;;5095631;28;19995;-73
2022/10/06 13:33:56;;;;;;;;;;;18.30;99.90;;;;;;5073530;28;20335;-73
2022/10/06 13:36:22;;;;;;;;;;;17.90;99.90;;;;;;5098433;28;19912;-72
2022/10/06 13:38:48;;;;;;;;;;;17.70;99.90;;;;;;5087142;28;19916;-74
2022/10/06 13:41:13;;;;;;;;;;;17.80;99.90;;;;;;5094575;28;20452;-74
2022/10/06 13:43:42;;;;;;;;;;;17.90;99.90;;;;;;5094831;28;19916;-73
2022/10/06 13:46:12;;;;;;;;;;;17.70;99.90;;;;;;5093745;28;19916;-73
2022/10/06 13:48:45;;;;;;;;;;;17.50;99.90;;;;;;5077379;28;20322;-74
2022/10/06 13:51:28;;;;;;;;;;;17.50;99.90;;;;;;5095621;28;19937;-75
2022/10/06 13:53:55;;;;;;;;;;;17.50;99.90;;;;;;5072219;28;19962;-74
2022/10/06 13:56:41;;;;;;;;;;;17.70;99.90;;;;;;5110895;28;20338;-73
2022/10/06 13:59:22;;;;;;;;;;;17.80;99.90;;;;;;5105844;28;20068;-73
2022/10/06 14:01:48;;;;;;;;;;;17.90;99.90;;;;;;5102999;28;19915;-73
2022/10/06 14:04:17;;;;;;;;;;;17.70;99.90;;;;;;5104203;28;20221;-72
2022/10/06 14:06:53;;;;;;;;;;;17.70;99.90;;;;;;5093603;28;20031;-72
2022/10/06 14:09:39;;;;;;;;;;;17.60;99.90;;;;;;5110651;28;20290;-73
2022/10/06 14:12:06;;;;;;;;;;;17.40;99.90;;;;;;5091197;28;20015;-73
2022/10/06 14:14:32;;;;;;;;;;;17.40;99.90;;;;;;5108955;28;21510;-72
2022/10/06 14:16:57;;;;;;;;;;;17.40;99.90;;;;;;5106819;28;19922;-73
2022/10/06 14:19:29;;;;;;;;;;;17.30;99.90;;;;;;5102591;28;20241;-72
2022/10/06 14:21:55;;;;;;;;;;;17.30;99.90;;;;;;5099208;28;20361;-73
2022/10/06 14:24:20;;;;;;;;;;;17.20;99.90;;;;;;5087740;28;19916;-72
2022/10/06 14:26:49;;;;;;;;;;;17.30;99.90;;;;;;5107822;28;20199;-73
2022/10/06 14:29:15;;;;;;;;;;;17.40;99.90;;;;;;5107383;28;19915;-72
2022/10/06 14:31:41;;;;;;;;;;;17.30;99.90;;;;;;5106809;28;19927;-74
2022/10/06 14:34:13;;;;;;;;;;;17.20;99.90;;;;;;5105070;28;19912;-73
2022/10/06 14:36:39;;;;;;;;;;;17.20;99.90;;;;;;5104714;28;19908;-73